This is the latest recevied weather packets stored in our database for station/object CA2JAT-13. If no packets are shown the sender has not sent any weather packets the latest 10 day(s).
| Time | Temp. | Humidity | Pressure | Rain* | Wind** | Luminosity | Snow |
|---|---|---|---|---|---|---|---|
| 1778092836 | 23.89° C | 27% | 1016.2 hPa | 0 mm | - | 591 W/m² | - |
| 1778091033 | 23.89° C | 26% | 1016.2 hPa | 0 mm | - | 631 W/m² | - |
| 1778089230 | 23.89° C | 29% | 1016.4 hPa | 0 mm | - | 653 W/m² | - |
| 1778087428 | 23.33° C | 33% | 1017 hPa | 0 mm | - | 656 W/m² | - |
| 1778085624 | 22.78° C | 32% | 1017.4 hPa | 0 mm | - | 655 W/m² | - |
| 1778083821 | 21.11° C | 39% | 1018.5 hPa | 0 mm | - | 622 W/m² | - |
| 1778082018 | 19.44° C | 43% | 1019.2 hPa | 0 mm | - | 587 W/m² | - |
| 1778080216 | 18.89° C | 46% | 1019.7 hPa | 0 mm | - | 539 W/m² | - |
| 1778076610 | 15° C | 59% | 1022.2 hPa | 0 mm | - | 430 W/m² | - |
| 1778074806 | 10.56° C | 75% | 1022.8 hPa | 0 mm | - | 231 W/m² | - |
| 1778072971 | 7.78° C | 88% | 1023.3 hPa | 0 mm | - | 89 W/m² | - |
| 1778071169 | 6.67° C | 91% | 1023 hPa | 0 mm | - | 45 W/m² | - |
| 1778069366 | 6.11° C | 93% | 1023.1 hPa | 0 mm | - | 15 W/m² | - |
| 1778067564 | 6.11° C | 92% | 1022.6 hPa | 0 mm | - | 0 W/m² | - |
| 1778063960 | 6.11° C | 94% | 1021.5 hPa | 0 mm | - | 0 W/m² | - |
| 1778062156 | 6.11° C | 94% | 1020.7 hPa | 0 mm | - | 0 W/m² | - |
| 1778060354 | 7.22° C | 89% | 1020.5 hPa | 0 mm | - | 0 W/m² | - |
| 1778058552 | 7.78° C | 92% | 1020.3 hPa | 0 mm | - | 0 W/m² | - |
| 1778056750 | 6.67° C | 95% | 1020.6 hPa | 0 mm | - | 0 W/m² | - |
| 1778054948 | 7.22° C | 90% | 1020.8 hPa | 0 mm | - | 0 W/m² | - |
| 1778053145 | 7.22° C | 92% | 1020.8 hPa | 0 mm | - | 0 W/m² | - |
| 1778051343 | 7.78° C | 89% | 1020.4 hPa | 0 mm | - | 0 W/m² | - |
| 1778049540 | 7.78° C | 93% | 1020 hPa | 0 mm | - | 0 W/m² | - |
| 1778047737 | 7.78° C | 92% | 1019.5 hPa | 0 mm | - | 0 W/m² | - |
| 1778045934 | 7.78° C | 89% | 1019.9 hPa | 0 mm | - | 0 W/m² | - |
* Rain latest hour (hover to see other rain measurements)
** Current wind speed in m/s (hover to see current wind gust speed)